sensor_id;sensor_type;location;lat;lon;timestamp;P1;durP1;ratioP1;P2;durP2;ratioP2
10090;SDS011;5084;51.386;6.778;2023-09-19T00:00:19;4.53;;;2.87;;
10090;SDS011;5084;51.386;6.778;2023-09-19T00:02:55;4.57;;;2.80;;
10090;SDS011;5084;51.386;6.778;2023-09-19T00:05:27;5.83;;;2.70;;
10090;SDS011;5084;51.386;6.778;2023-09-19T00:07:54;5.23;;;2.73;;
10090;SDS011;5084;51.386;6.778;2023-09-19T00:10:22;6.47;;;2.60;;
10090;SDS011;5084;51.386;6.778;2023-09-19T00:12:56;3.53;;;2.30;;
10090;SDS011;5084;51.386;6.778;2023-09-19T00:15:25;4.47;;;2.83;;
10090;SDS011;5084;51.386;6.778;2023-09-19T00:17:53;4.00;;;2.43;;
10090;SDS011;5084;51.386;6.778;2023-09-19T00:20:23;3.27;;;2.60;;
10090;SDS011;5084;51.386;6.778;2023-09-19T00:22:54;4.40;;;2.60;;
10090;SDS011;5084;51.386;6.778;2023-09-19T00:25:20;5.43;;;2.90;;
10090;SDS011;5084;51.386;6.778;2023-09-19T00:27:47;2.97;;;2.60;;
10090;SDS011;5084;51.386;6.778;2023-09-19T00:30:16;3.77;;;2.43;;
10090;SDS011;5084;51.386;6.778;2023-09-19T00:32:46;2.77;;;2.20;;
10090;SDS011;5084;51.386;6.778;2023-09-19T00:35:13;5.97;;;2.87;;
10090;SDS011;5084;51.386;6.778;2023-09-19T00:37:40;4.13;;;2.80;;
10090;SDS011;5084;51.386;6.778;2023-09-19T00:40:07;3.60;;;2.80;;
10090;SDS011;5084;51.386;6.778;2023-09-19T00:42:43;5.53;;;2.63;;
10090;SDS011;5084;51.386;6.778;2023-09-19T00:45:09;3.63;;;2.63;;
10090;SDS011;5084;51.386;6.778;2023-09-19T00:47:36;4.00;;;2.60;;
10090;SDS011;5084;51.386;6.778;2023-09-19T00:50:03;6.30;;;2.77;;
10090;SDS011;5084;51.386;6.778;2023-09-19T00:52:33;4.37;;;2.63;;
10090;SDS011;5084;51.386;6.778;2023-09-19T00:55:01;5.50;;;2.50;;
10090;SDS011;5084;51.386;6.778;2023-09-19T00:57:28;6.87;;;3.33;;
10090;SDS011;5084;51.386;6.778;2023-09-19T00:59:58;6.17;;;3.23;;
10090;SDS011;5084;51.386;6.778;2023-09-19T01:02:25;4.10;;;2.40;;
10090;SDS011;5084;51.386;6.778;2023-09-19T01:04:55;3.63;;;3.00;;
10090;SDS011;5084;51.386;6.778;2023-09-19T01:07:21;6.90;;;2.90;;
10090;SDS011;5084;51.386;6.778;2023-09-19T01:09:48;4.90;;;2.60;;
10090;SDS011;5084;51.386;6.778;2023-09-19T01:12:16;4.57;;;2.80;;
10090;SDS011;5084;51.386;6.778;2023-09-19T01:17:21;5.23;;;3.10;;
10090;SDS011;5084;51.386;6.778;2023-09-19T01:20:03;3.90;;;2.73;;
10090;SDS011;5084;51.386;6.778;2023-09-19T01:25:26;5.03;;;2.67;;
10090;SDS011;5084;51.386;6.778;2023-09-19T01:30:31;7.60;;;4.23;;
10090;SDS011;5084;51.386;6.778;2023-09-19T01:32:59;4.00;;;2.80;;
10090;SDS011;5084;51.386;6.778;2023-09-19T01:35:25;3.60;;;2.57;;
10090;SDS011;5084;51.386;6.778;2023-09-19T01:37:52;4.67;;;2.87;;
10090;SDS011;5084;51.386;6.778;2023-09-19T01:40:19;4.47;;;2.90;;
10090;SDS011;5084;51.386;6.778;2023-09-19T01:42:53;5.37;;;3.50;;
10090;SDS011;5084;51.386;6.778;2023-09-19T01:45:27;4.20;;;2.47;;
10090;SDS011;5084;51.386;6.778;2023-09-19T01:48:19;3.73;;;2.90;;
10090;SDS011;5084;51.386;6.778;2023-09-19T01:53:25;4.63;;;2.60;;
10090;SDS011;5084;51.386;6.778;2023-09-19T01:55:55;6.60;;;3.07;;
10090;SDS011;5084;51.386;6.778;2023-09-19T02:00:49;3.93;;;2.83;;
10090;SDS011;5084;51.386;6.778;2023-09-19T02:03:16;4.73;;;2.60;;
10090;SDS011;5084;51.386;6.778;2023-09-19T02:05:52;8.13;;;3.67;;
10090;SDS011;5084;51.386;6.778;2023-09-19T02:08:19;3.03;;;2.73;;
10090;SDS011;5084;51.386;6.778;2023-09-19T02:10:45;4.47;;;2.70;;
10090;SDS011;5084;51.386;6.778;2023-09-19T02:13:17;6.33;;;2.87;;
10090;SDS011;5084;51.386;6.778;2023-09-19T02:15:44;5.03;;;2.83;;
10090;SDS011;5084;51.386;6.778;2023-09-19T02:18:11;5.00;;;3.13;;
10090;SDS011;5084;51.386;6.778;2023-09-19T02:20:38;4.57;;;3.03;;
10090;SDS011;5084;51.386;6.778;2023-09-19T02:23:04;4.97;;;2.67;;
10090;SDS011;5084;51.386;6.778;2023-09-19T02:25:32;4.70;;;2.67;;
10090;SDS011;5084;51.386;6.778;2023-09-19T02:27:58;7.10;;;3.17;;
10090;SDS011;5084;51.386;6.778;2023-09-19T02:30:26;3.90;;;2.53;;
10090;SDS011;5084;51.386;6.778;2023-09-19T02:32:52;4.63;;;2.50;;
10090;SDS011;5084;51.386;6.778;2023-09-19T02:35:18;6.53;;;3.37;;
10090;SDS011;5084;51.386;6.778;2023-09-19T02:37:45;4.83;;;2.47;;
10090;SDS011;5084;51.386;6.778;2023-09-19T02:40:11;4.93;;;3.13;;
10090;SDS011;5084;51.386;6.778;2023-09-19T02:42:44;5.40;;;2.50;;
10090;SDS011;5084;51.386;6.778;2023-09-19T02:45:12;7.03;;;3.27;;
10090;SDS011;5084;51.386;6.778;2023-09-19T02:47:41;6.97;;;3.27;;
10090;SDS011;5084;51.386;6.778;2023-09-19T02:50:08;4.57;;;2.50;;
10090;SDS011;5084;51.386;6.778;2023-09-19T02:52:38;4.10;;;2.83;;
10090;SDS011;5084;51.386;6.778;2023-09-19T02:55:04;3.97;;;2.80;;
10090;SDS011;5084;51.386;6.778;2023-09-19T02:57:34;5.57;;;2.50;;
10090;SDS011;5084;51.386;6.778;2023-09-19T03:00:02;5.70;;;2.93;;
10090;SDS011;5084;51.386;6.778;2023-09-19T03:02:28;4.50;;;2.57;;
10090;SDS011;5084;51.386;6.778;2023-09-19T03:04:58;5.30;;;2.37;;
10090;SDS011;5084;51.386;6.778;2023-09-19T03:07:25;6.00;;;2.77;;
10090;SDS011;5084;51.386;6.778;2023-09-19T03:09:51;4.83;;;2.80;;
10090;SDS011;5084;51.386;6.778;2023-09-19T03:12:18;6.50;;;3.03;;
10090;SDS011;5084;51.386;6.778;2023-09-19T03:14:44;3.50;;;2.37;;
10090;SDS011;5084;51.386;6.778;2023-09-19T03:17:10;6.33;;;4.83;;
10090;SDS011;5084;51.386;6.778;2023-09-19T03:19:40;4.13;;;2.63;;
10090;SDS011;5084;51.386;6.778;2023-09-19T03:22:09;5.77;;;2.80;;
10090;SDS011;5084;51.386;6.778;2023-09-19T03:24:35;4.90;;;3.03;;
10090;SDS011;5084;51.386;6.778;2023-09-19T03:27:03;5.20;;;2.43;;
10090;SDS011;5084;51.386;6.778;2023-09-19T03:29:29;4.30;;;2.60;;
10090;SDS011;5084;51.386;6.778;2023-09-19T03:31:56;6.57;;;3.83;;
10090;SDS011;5084;51.386;6.778;2023-09-19T03:34:22;6.70;;;2.77;;
10090;SDS011;5084;51.386;6.778;2023-09-19T03:36:49;3.77;;;2.57;;
10090;SDS011;5084;51.386;6.778;2023-09-19T03:39:15;5.50;;;2.80;;
10090;SDS011;5084;51.386;6.778;2023-09-19T03:41:41;7.07;;;3.23;;
10090;SDS011;5084;51.386;6.778;2023-09-19T03:44:08;6.33;;;2.90;;
10090;SDS011;5084;51.386;6.778;2023-09-19T03:46:34;4.10;;;2.50;;
10090;SDS011;5084;51.386;6.778;2023-09-19T03:49:01;5.30;;;2.63;;
10090;SDS011;5084;51.386;6.778;2023-09-19T03:51:28;4.20;;;2.67;;
10090;SDS011;5084;51.386;6.778;2023-09-19T03:53:54;5.67;;;2.80;;
10090;SDS011;5084;51.386;6.778;2023-09-19T03:56:21;5.90;;;2.37;;
10090;SDS011;5084;51.386;6.778;2023-09-19T03:58:47;6.13;;;2.77;;
10090;SDS011;5084;51.386;6.778;2023-09-19T04:01:13;5.90;;;4.00;;
10090;SDS011;5084;51.386;6.778;2023-09-19T04:03:41;3.87;;;2.37;;
10090;SDS011;5084;51.386;6.778;2023-09-19T04:06:16;7.07;;;3.40;;
10090;SDS011;5084;51.386;6.778;2023-09-19T04:08:43;4.50;;;2.60;;
10090;SDS011;5084;51.386;6.778;2023-09-19T04:11:09;5.70;;;2.23;;
10090;SDS011;5084;51.386;6.778;2023-09-19T04:13:36;5.07;;;2.87;;
10090;SDS011;5084;51.386;6.778;2023-09-19T04:16:02;6.40;;;2.47;;
10090;SDS011;5084;51.386;6.778;2023-09-19T04:18:29;4.17;;;2.30;;
10090;SDS011;5084;51.386;6.778;2023-09-19T04:20:58;6.07;;;2.50;;
10090;SDS011;5084;51.386;6.778;2023-09-19T04:23:28;5.20;;;2.53;;
10090;SDS011;5084;51.386;6.778;2023-09-19T04:25:55;3.60;;;2.53;;
10090;SDS011;5084;51.386;6.778;2023-09-19T04:28:21;4.87;;;2.43;;
10090;SDS011;5084;51.386;6.778;2023-09-19T04:30:48;5.20;;;2.50;;
10090;SDS011;5084;51.386;6.778;2023-09-19T04:33:14;7.67;;;3.67;;
10090;SDS011;5084;51.386;6.778;2023-09-19T04:35:40;5.70;;;2.90;;
10090;SDS011;5084;51.386;6.778;2023-09-19T04:38:10;4.80;;;2.73;;
10090;SDS011;5084;51.386;6.778;2023-09-19T04:40:37;3.47;;;2.60;;
10090;SDS011;5084;51.386;6.778;2023-09-19T04:43:04;5.03;;;2.83;;
10090;SDS011;5084;51.386;6.778;2023-09-19T04:45:32;4.17;;;2.43;;
10090;SDS011;5084;51.386;6.778;2023-09-19T04:47:59;5.73;;;2.53;;
10090;SDS011;5084;51.386;6.778;2023-09-19T04:50:26;3.87;;;2.33;;
10090;SDS011;5084;51.386;6.778;2023-09-19T04:52:53;6.27;;;2.57;;
10090;SDS011;5084;51.386;6.778;2023-09-19T04:55:19;3.70;;;2.20;;
10090;SDS011;5084;51.386;6.778;2023-09-19T04:57:46;5.40;;;2.57;;
10090;SDS011;5084;51.386;6.778;2023-09-19T05:00:22;7.20;;;3.20;;
10090;SDS011;5084;51.386;6.778;2023-09-19T05:02:56;5.47;;;3.00;;
10090;SDS011;5084;51.386;6.778;2023-09-19T05:05:22;6.97;;;2.80;;
10090;SDS011;5084;51.386;6.778;2023-09-19T05:07:50;4.70;;;2.60;;
10090;SDS011;5084;51.386;6.778;2023-09-19T05:10:22;5.53;;;2.47;;
10090;SDS011;5084;51.386;6.778;2023-09-19T05:12:48;3.83;;;2.50;;
10090;SDS011;5084;51.386;6.778;2023-09-19T05:15:17;7.17;;;2.53;;
10090;SDS011;5084;51.386;6.778;2023-09-19T05:17:52;5.67;;;2.60;;
10090;SDS011;5084;51.386;6.778;2023-09-19T05:20:21;4.03;;;2.97;;
10090;SDS011;5084;51.386;6.778;2023-09-19T05:22:57;3.47;;;2.47;;
10090;SDS011;5084;51.386;6.778;2023-09-19T05:25:26;5.17;;;2.60;;
10090;SDS011;5084;51.386;6.778;2023-09-19T05:27:54;5.93;;;3.27;;
10090;SDS011;5084;51.386;6.778;2023-09-19T05:30:21;4.67;;;2.97;;
10090;SDS011;5084;51.386;6.778;2023-09-19T05:32:47;5.23;;;2.67;;
10090;SDS011;5084;51.386;6.778;2023-09-19T05:35:13;6.27;;;3.50;;
10090;SDS011;5084;51.386;6.778;2023-09-19T05:37:39;7.77;;;2.53;;
10090;SDS011;5084;51.386;6.778;2023-09-19T05:40:06;5.77;;;3.03;;
10090;SDS011;5084;51.386;6.778;2023-09-19T05:42:37;8.57;;;2.77;;
10090;SDS011;5084;51.386;6.778;2023-09-19T05:45:06;4.57;;;2.50;;
10090;SDS011;5084;51.386;6.778;2023-09-19T05:47:32;10.60;;;5.17;;
10090;SDS011;5084;51.386;6.778;2023-09-19T05:49:59;5.33;;;2.77;;
10090;SDS011;5084;51.386;6.778;2023-09-19T05:52:26;5.73;;;3.43;;
10090;SDS011;5084;51.386;6.778;2023-09-19T05:54:52;5.97;;;2.83;;
10090;SDS011;5084;51.386;6.778;2023-09-19T05:57:18;7.53;;;2.87;;
10090;SDS011;5084;51.386;6.778;2023-09-19T05:59:44;6.10;;;2.80;;
10090;SDS011;5084;51.386;6.778;2023-09-19T06:02:11;5.97;;;2.47;;
10090;SDS011;5084;51.386;6.778;2023-09-19T06:04:38;5.57;;;2.77;;
10090;SDS011;5084;51.386;6.778;2023-09-19T06:07:06;5.60;;;2.70;;
10090;SDS011;5084;51.386;6.778;2023-09-19T06:09:32;11.43;;;3.70;;
10090;SDS011;5084;51.386;6.778;2023-09-19T06:11:58;9.43;;;4.97;;
10090;SDS011;5084;51.386;6.778;2023-09-19T06:14:29;8.00;;;3.80;;
10090;SDS011;5084;51.386;6.778;2023-09-19T06:16:55;8.10;;;3.20;;
10090;SDS011;5084;51.386;6.778;2023-09-19T06:19:22;8.80;;;4.03;;
10090;SDS011;5084;51.386;6.778;2023-09-19T06:21:50;9.83;;;4.70;;
10090;SDS011;5084;51.386;6.778;2023-09-19T06:24:19;12.23;;;3.60;;
10090;SDS011;5084;51.386;6.778;2023-09-19T06:26:46;10.07;;;3.30;;
10090;SDS011;5084;51.386;6.778;2023-09-19T06:29:12;9.03;;;3.13;;
10090;SDS011;5084;51.386;6.778;2023-09-19T06:31:39;9.10;;;3.60;;
10090;SDS011;5084;51.386;6.778;2023-09-19T06:34:06;11.13;;;3.33;;
10090;SDS011;5084;51.386;6.778;2023-09-19T06:36:33;9.40;;;3.17;;
10090;SDS011;5084;51.386;6.778;2023-09-19T06:38:59;14.23;;;3.13;;
10090;SDS011;5084;51.386;6.778;2023-09-19T06:41:25;6.33;;;3.17;;
10090;SDS011;5084;51.386;6.778;2023-09-19T06:43:51;7.87;;;3.07;;
10090;SDS011;5084;51.386;6.778;2023-09-19T06:46:21;7.43;;;3.10;;
10090;SDS011;5084;51.386;6.778;2023-09-19T06:48:47;11.20;;;3.20;;
10090;SDS011;5084;51.386;6.778;2023-09-19T06:51:14;8.43;;;3.20;;
10090;SDS011;5084;51.386;6.778;2023-09-19T06:53:40;10.37;;;4.03;;
10090;SDS011;5084;51.386;6.778;2023-09-19T06:56:07;9.10;;;3.87;;
10090;SDS011;5084;51.386;6.778;2023-09-19T06:58:33;6.40;;;2.80;;
10090;SDS011;5084;51.386;6.778;2023-09-19T07:01:01;7.87;;;2.87;;
10090;SDS011;5084;51.386;6.778;2023-09-19T07:03:28;10.00;;;2.90;;
10090;SDS011;5084;51.386;6.778;2023-09-19T07:05:54;7.37;;;3.07;;
10090;SDS011;5084;51.386;6.778;2023-09-19T07:08:21;10.97;;;3.37;;
10090;SDS011;5084;51.386;6.778;2023-09-19T07:10:47;10.70;;;2.67;;
10090;SDS011;5084;51.386;6.778;2023-09-19T07:13:14;7.93;;;3.33;;
10090;SDS011;5084;51.386;6.778;2023-09-19T07:15:42;9.37;;;2.77;;
10090;SDS011;5084;51.386;6.778;2023-09-19T07:18:12;8.57;;;3.23;;
10090;SDS011;5084;51.386;6.778;2023-09-19T07:20:39;5.60;;;2.83;;
10090;SDS011;5084;51.386;6.778;2023-09-19T07:23:10;5.57;;;3.63;;
10090;SDS011;5084;51.386;6.778;2023-09-19T07:25:39;9.07;;;3.57;;
10090;SDS011;5084;51.386;6.778;2023-09-19T07:28:05;9.50;;;4.40;;
10090;SDS011;5084;51.386;6.778;2023-09-19T07:30:32;13.30;;;3.83;;
10090;SDS011;5084;51.386;6.778;2023-09-19T07:33:02;11.57;;;3.60;;
10090;SDS011;5084;51.386;6.778;2023-09-19T07:35:30;7.27;;;3.60;;
10090;SDS011;5084;51.386;6.778;2023-09-19T07:37:56;6.43;;;3.23;;
10090;SDS011;5084;51.386;6.778;2023-09-19T07:40:23;7.93;;;3.33;;
10090;SDS011;5084;51.386;6.778;2023-09-19T07:42:52;8.50;;;3.67;;
10090;SDS011;5084;51.386;6.778;2023-09-19T07:45:18;13.93;;;4.10;;
10090;SDS011;5084;51.386;6.778;2023-09-19T07:47:44;9.17;;;3.40;;
10090;SDS011;5084;51.386;6.778;2023-09-19T07:50:10;8.10;;;2.73;;
10090;SDS011;5084;51.386;6.778;2023-09-19T07:52:37;5.67;;;3.20;;
10090;SDS011;5084;51.386;6.778;2023-09-19T07:55:04;6.17;;;3.90;;
10090;SDS011;5084;51.386;6.778;2023-09-19T07:57:33;11.00;;;3.47;;
10090;SDS011;5084;51.386;6.778;2023-09-19T08:00:00;5.17;;;2.90;;
10090;SDS011;5084;51.386;6.778;2023-09-19T08:02:26;9.77;;;4.00;;
10090;SDS011;5084;51.386;6.778;2023-09-19T08:04:53;7.73;;;3.13;;
10090;SDS011;5084;51.386;6.778;2023-09-19T08:07:20;8.27;;;3.30;;
10090;SDS011;5084;51.386;6.778;2023-09-19T08:09:48;8.80;;;3.60;;
10090;SDS011;5084;51.386;6.778;2023-09-19T08:12:14;8.93;;;3.13;;
10090;SDS011;5084;51.386;6.778;2023-09-19T08:14:40;6.57;;;3.00;;
10090;SDS011;5084;51.386;6.778;2023-09-19T08:17:07;7.43;;;3.70;;
10090;SDS011;5084;51.386;6.778;2023-09-19T08:19:37;7.40;;;2.97;;
10090;SDS011;5084;51.386;6.778;2023-09-19T08:22:06;6.30;;;2.80;;
10090;SDS011;5084;51.386;6.778;2023-09-19T08:24:35;8.73;;;3.30;;
10090;SDS011;5084;51.386;6.778;2023-09-19T08:27:02;7.33;;;3.13;;
10090;SDS011;5084;51.386;6.778;2023-09-19T08:29:32;10.17;;;3.30;;
10090;SDS011;5084;51.386;6.778;2023-09-19T08:32:00;9.80;;;3.27;;
10090;SDS011;5084;51.386;6.778;2023-09-19T08:34:26;6.07;;;3.27;;
10090;SDS011;5084;51.386;6.778;2023-09-19T08:36:52;7.67;;;3.33;;
10090;SDS011;5084;51.386;6.778;2023-09-19T08:39:22;11.13;;;3.00;;
10090;SDS011;5084;51.386;6.778;2023-09-19T08:41:48;6.20;;;2.80;;
10090;SDS011;5084;51.386;6.778;2023-09-19T08:44:14;8.37;;;3.00;;
10090;SDS011;5084;51.386;6.778;2023-09-19T08:46:41;8.60;;;2.97;;
10090;SDS011;5084;51.386;6.778;2023-09-19T08:49:08;9.73;;;5.13;;
10090;SDS011;5084;51.386;6.778;2023-09-19T08:51:45;8.90;;;2.87;;
10090;SDS011;5084;51.386;6.778;2023-09-19T08:54:14;8.30;;;4.03;;
10090;SDS011;5084;51.386;6.778;2023-09-19T08:56:44;7.57;;;3.10;;
10090;SDS011;5084;51.386;6.778;2023-09-19T08:59:12;12.80;;;4.27;;
10090;SDS011;5084;51.386;6.778;2023-09-19T09:01:38;11.07;;;3.37;;
10090;SDS011;5084;51.386;6.778;2023-09-19T09:04:08;7.90;;;4.90;;
10090;SDS011;5084;51.386;6.778;2023-09-19T09:06:34;8.83;;;3.23;;
10090;SDS011;5084;51.386;6.778;2023-09-19T09:09:01;7.70;;;3.00;;
10090;SDS011;5084;51.386;6.778;2023-09-19T09:11:28;10.37;;;3.13;;
10090;SDS011;5084;51.386;6.778;2023-09-19T09:13:55;8.07;;;3.10;;
10090;SDS011;5084;51.386;6.778;2023-09-19T09:16:22;7.43;;;3.03;;
10090;SDS011;5084;51.386;6.778;2023-09-19T09:18:51;5.57;;;3.20;;
10090;SDS011;5084;51.386;6.778;2023-09-19T09:21:19;6.87;;;3.53;;
10090;SDS011;5084;51.386;6.778;2023-09-19T09:23:46;7.33;;;3.00;;
10090;SDS011;5084;51.386;6.778;2023-09-19T09:26:13;6.40;;;3.20;;
10090;SDS011;5084;51.386;6.778;2023-09-19T09:28:44;9.13;;;3.43;;
10090;SDS011;5084;51.386;6.778;2023-09-19T09:31:23;15.60;;;3.77;;
10090;SDS011;5084;51.386;6.778;2023-09-19T09:33:53;9.70;;;3.53;;
10090;SDS011;5084;51.386;6.778;2023-09-19T09:36:33;7.13;;;3.10;;
10090;SDS011;5084;51.386;6.778;2023-09-19T09:38:59;9.53;;;2.97;;
10090;SDS011;5084;51.386;6.778;2023-09-19T09:41:41;7.83;;;3.10;;
10090;SDS011;5084;51.386;6.778;2023-09-19T09:44:12;7.57;;;3.10;;
10090;SDS011;5084;51.386;6.778;2023-09-19T09:46:41;8.00;;;3.10;;
10090;SDS011;5084;51.386;6.778;2023-09-19T09:49:26;9.77;;;3.00;;
10090;SDS011;5084;51.386;6.778;2023-09-19T09:54:26;8.50;;;3.30;;
10090;SDS011;5084;51.386;6.778;2023-09-19T09:57:02;4.23;;;2.83;;
10090;SDS011;5084;51.386;6.778;2023-09-19T09:59:49;10.70;;;3.27;;
10090;SDS011;5084;51.386;6.778;2023-09-19T10:02:17;8.80;;;3.17;;
10090;SDS011;5084;51.386;6.778;2023-09-19T10:04:50;9.97;;;2.90;;
10090;SDS011;5084;51.386;6.778;2023-09-19T10:07:27;6.87;;;3.07;;
10090;SDS011;5084;51.386;6.778;2023-09-19T10:09:53;8.37;;;3.90;;
10090;SDS011;5084;51.386;6.778;2023-09-19T10:12:29;8.17;;;3.40;;
10090;SDS011;5084;51.386;6.778;2023-09-19T10:14:56;8.33;;;3.07;;
10090;SDS011;5084;51.386;6.778;2023-09-19T10:17:24;10.07;;;3.43;;
10090;SDS011;5084;51.386;6.778;2023-09-19T10:19:55;10.67;;;3.70;;
10090;SDS011;5084;51.386;6.778;2023-09-19T10:22:23;6.77;;;3.33;;
10090;SDS011;5084;51.386;6.778;2023-09-19T10:24:52;8.93;;;3.43;;
10090;SDS011;5084;51.386;6.778;2023-09-19T10:27:22;5.33;;;2.93;;
10090;SDS011;5084;51.386;6.778;2023-09-19T10:29:51;8.73;;;3.63;;
10090;SDS011;5084;51.386;6.778;2023-09-19T10:32:22;7.73;;;3.17;;
10090;SDS011;5084;51.386;6.778;2023-09-19T10:34:49;5.70;;;2.83;;
10090;SDS011;5084;51.386;6.778;2023-09-19T10:37:16;7.13;;;3.30;;
10090;SDS011;5084;51.386;6.778;2023-09-19T10:39:46;9.17;;;3.00;;
10090;SDS011;5084;51.386;6.778;2023-09-19T10:42:14;7.00;;;3.00;;
10090;SDS011;5084;51.386;6.778;2023-09-19T10:44:42;6.63;;;2.97;;
10090;SDS011;5084;51.386;6.778;2023-09-19T10:47:09;8.67;;;2.90;;
10090;SDS011;5084;51.386;6.778;2023-09-19T10:49:42;8.83;;;4.30;;
10090;SDS011;5084;51.386;6.778;2023-09-19T10:52:08;7.17;;;3.40;;
10090;SDS011;5084;51.386;6.778;2023-09-19T10:54:41;7.77;;;3.17;;
10090;SDS011;5084;51.386;6.778;2023-09-19T10:57:18;7.63;;;3.53;;
10090;SDS011;5084;51.386;6.778;2023-09-19T11:00:00;9.33;;;4.00;;
10090;SDS011;5084;51.386;6.778;2023-09-19T11:02:27;5.77;;;2.80;;
10090;SDS011;5084;51.386;6.778;2023-09-19T11:04:53;9.03;;;3.30;;
10090;SDS011;5084;51.386;6.778;2023-09-19T11:07:21;4.47;;;2.77;;
10090;SDS011;5084;51.386;6.778;2023-09-19T11:09:54;6.33;;;3.13;;
10090;SDS011;5084;51.386;6.778;2023-09-19T11:15:06;9.40;;;3.00;;
10090;SDS011;5084;51.386;6.778;2023-09-19T11:17:37;6.93;;;3.47;;
10090;SDS011;5084;51.386;6.778;2023-09-19T11:30:33;7.43;;;3.37;;
10090;SDS011;5084;51.386;6.778;2023-09-19T11:36:01;8.17;;;3.40;;
10090;SDS011;5084;51.386;6.778;2023-09-19T11:46:28;11.50;;;2.83;;
10090;SDS011;5084;51.386;6.778;2023-09-19T11:48:58;7.47;;;2.93;;
10090;SDS011;5084;51.386;6.778;2023-09-19T11:51:39;8.37;;;2.93;;
10090;SDS011;5084;51.386;6.778;2023-09-19T11:54:10;5.83;;;3.10;;
10090;SDS011;5084;51.386;6.778;2023-09-19T11:56:50;5.60;;;3.07;;
10090;SDS011;5084;51.386;6.778;2023-09-19T11:59:20;12.30;;;3.27;;
10090;SDS011;5084;51.386;6.778;2023-09-19T12:02:05;10.93;;;2.43;;
10090;SDS011;5084;51.386;6.778;2023-09-19T12:07:09;7.47;;;2.97;;
10090;SDS011;5084;51.386;6.778;2023-09-19T12:09:43;7.47;;;3.20;;
10090;SDS011;5084;51.386;6.778;2023-09-19T12:12:19;7.23;;;2.73;;
10090;SDS011;5084;51.386;6.778;2023-09-19T12:14:48;9.30;;;2.80;;
10090;SDS011;5084;51.386;6.778;2023-09-19T12:17:15;5.30;;;2.90;;
10090;SDS011;5084;51.386;6.778;2023-09-19T12:20:01;8.37;;;2.83;;
10090;SDS011;5084;51.386;6.778;2023-09-19T12:22:43;6.30;;;2.80;;
10090;SDS011;5084;51.386;6.778;2023-09-19T12:25:10;4.83;;;3.10;;
10090;SDS011;5084;51.386;6.778;2023-09-19T12:27:43;4.00;;;2.60;;
10090;SDS011;5084;51.386;6.778;2023-09-19T12:30:12;5.37;;;2.80;;
10090;SDS011;5084;51.386;6.778;2023-09-19T12:32:46;4.23;;;2.97;;
10090;SDS011;5084;51.386;6.778;2023-09-19T12:35:28;3.50;;;2.53;;
10090;SDS011;5084;51.386;6.778;2023-09-19T12:37:55;5.40;;;2.60;;
10090;SDS011;5084;51.386;6.778;2023-09-19T12:40:22;10.30;;;2.83;;
10090;SDS011;5084;51.386;6.778;2023-09-19T12:42:52;6.47;;;2.47;;
10090;SDS011;5084;51.386;6.778;2023-09-19T12:45:20;4.97;;;2.73;;
10090;SDS011;5084;51.386;6.778;2023-09-19T12:50:33;6.53;;;2.93;;
10090;SDS011;5084;51.386;6.778;2023-09-19T12:52:59;4.67;;;2.93;;
10090;SDS011;5084;51.386;6.778;2023-09-19T12:57:58;6.53;;;2.53;;
10090;SDS011;5084;51.386;6.778;2023-09-19T13:00:33;4.73;;;2.47;;
10090;SDS011;5084;51.386;6.778;2023-09-19T13:03:12;5.27;;;2.17;;
10090;SDS011;5084;51.386;6.778;2023-09-19T13:05:50;6.47;;;2.50;;
10090;SDS011;5084;51.386;6.778;2023-09-19T13:08:21;5.03;;;2.87;;
10090;SDS011;5084;51.386;6.778;2023-09-19T13:13:26;7.43;;;2.77;;
10090;SDS011;5084;51.386;6.778;2023-09-19T13:15:53;4.23;;;2.40;;
10090;SDS011;5084;51.386;6.778;2023-09-19T13:18:19;3.63;;;2.20;;
10090;SDS011;5084;51.386;6.778;2023-09-19T13:21:05;6.10;;;2.53;;
10090;SDS011;5084;51.386;6.778;2023-09-19T13:23:31;6.07;;;2.40;;
10090;SDS011;5084;51.386;6.778;2023-09-19T13:25:57;4.87;;;2.43;;
10090;SDS011;5084;51.386;6.778;2023-09-19T13:28:23;4.37;;;2.83;;
10090;SDS011;5084;51.386;6.778;2023-09-19T13:30:50;3.40;;;2.33;;
10090;SDS011;5084;51.386;6.778;2023-09-19T13:33:16;2.87;;;1.97;;
10090;SDS011;5084;51.386;6.778;2023-09-19T13:35:46;5.13;;;2.47;;
10090;SDS011;5084;51.386;6.778;2023-09-19T13:38:13;4.20;;;2.47;;
10090;SDS011;5084;51.386;6.778;2023-09-19T13:40:39;5.80;;;2.13;;
10090;SDS011;5084;51.386;6.778;2023-09-19T13:43:09;2.57;;;1.93;;
10090;SDS011;5084;51.386;6.778;2023-09-19T13:45:36;3.53;;;2.20;;
10090;SDS011;5084;51.386;6.778;2023-09-19T13:48:02;2.10;;;2.00;;
10090;SDS011;5084;51.386;6.778;2023-09-19T13:50:28;6.50;;;2.13;;
10090;SDS011;5084;51.386;6.778;2023-09-19T13:52:56;3.23;;;2.03;;
10090;SDS011;5084;51.386;6.778;2023-09-19T13:55:25;8.13;;;2.57;;
10090;SDS011;5084;51.386;6.778;2023-09-19T13:57:51;5.30;;;1.90;;
10090;SDS011;5084;51.386;6.778;2023-09-19T14:00:20;6.47;;;2.60;;
10090;SDS011;5084;51.386;6.778;2023-09-19T14:02:47;2.97;;;1.97;;
10090;SDS011;5084;51.386;6.778;2023-09-19T14:05:14;3.73;;;1.83;;
10090;SDS011;5084;51.386;6.778;2023-09-19T14:07:44;3.10;;;1.83;;
10090;SDS011;5084;51.386;6.778;2023-09-19T14:10:11;2.97;;;1.87;;
10090;SDS011;5084;51.386;6.778;2023-09-19T14:12:38;3.07;;;1.57;;
10090;SDS011;5084;51.386;6.778;2023-09-19T14:15:06;5.00;;;1.90;;
10090;SDS011;5084;51.386;6.778;2023-09-19T14:17:33;4.97;;;2.10;;
10090;SDS011;5084;51.386;6.778;2023-09-19T14:19:59;3.10;;;1.80;;
10090;SDS011;5084;51.386;6.778;2023-09-19T14:22:25;2.13;;;1.50;;
10090;SDS011;5084;51.386;6.778;2023-09-19T14:24:51;3.10;;;1.90;;
10090;SDS011;5084;51.386;6.778;2023-09-19T14:27:18;5.40;;;1.73;;
10090;SDS011;5084;51.386;6.778;2023-09-19T14:29:44;5.30;;;2.03;;
10090;SDS011;5084;51.386;6.778;2023-09-19T14:32:10;3.47;;;1.90;;
10090;SDS011;5084;51.386;6.778;2023-09-19T14:34:37;2.27;;;1.60;;
10090;SDS011;5084;51.386;6.778;2023-09-19T14:37:07;3.87;;;1.70;;
10090;SDS011;5084;51.386;6.778;2023-09-19T14:39:33;4.70;;;1.90;;
10090;SDS011;5084;51.386;6.778;2023-09-19T14:41:59;3.83;;;1.97;;
10090;SDS011;5084;51.386;6.778;2023-09-19T14:44:25;4.53;;;1.80;;
10090;SDS011;5084;51.386;6.778;2023-09-19T14:46:53;3.00;;;1.80;;
10090;SDS011;5084;51.386;6.778;2023-09-19T14:49:20;2.20;;;1.40;;
10090;SDS011;5084;51.386;6.778;2023-09-19T14:51:46;3.53;;;1.73;;
10090;SDS011;5084;51.386;6.778;2023-09-19T14:54:17;3.07;;;1.90;;
10090;SDS011;5084;51.386;6.778;2023-09-19T14:56:43;4.10;;;1.93;;
10090;SDS011;5084;51.386;6.778;2023-09-19T14:59:10;2.43;;;1.70;;
10090;SDS011;5084;51.386;6.778;2023-09-19T15:01:37;4.30;;;1.53;;
10090;SDS011;5084;51.386;6.778;2023-09-19T15:04:04;5.80;;;1.70;;
10090;SDS011;5084;51.386;6.778;2023-09-19T15:06:30;3.87;;;1.80;;
10090;SDS011;5084;51.386;6.778;2023-09-19T15:08:56;10.50;;;2.17;;
10090;SDS011;5084;51.386;6.778;2023-09-19T15:11:23;3.77;;;1.73;;
10090;SDS011;5084;51.386;6.778;2023-09-19T15:13:50;5.20;;;1.70;;
10090;SDS011;5084;51.386;6.778;2023-09-19T15:16:17;2.53;;;2.00;;
10090;SDS011;5084;51.386;6.778;2023-09-19T15:18:45;3.93;;;1.57;;
10090;SDS011;5084;51.386;6.778;2023-09-19T15:21:17;3.77;;;1.87;;
10090;SDS011;5084;51.386;6.778;2023-09-19T15:23:43;3.13;;;1.57;;
10090;SDS011;5084;51.386;6.778;2023-09-19T15:26:12;2.97;;;1.70;;
10090;SDS011;5084;51.386;6.778;2023-09-19T15:28:39;2.50;;;1.70;;
10090;SDS011;5084;51.386;6.778;2023-09-19T15:31:06;3.10;;;1.77;;
10090;SDS011;5084;51.386;6.778;2023-09-19T15:33:34;2.43;;;1.90;;
10090;SDS011;5084;51.386;6.778;2023-09-19T15:36:06;2.40;;;1.70;;
10090;SDS011;5084;51.386;6.778;2023-09-19T15:38:54;2.30;;;1.70;;
10090;SDS011;5084;51.386;6.778;2023-09-19T15:41:21;3.90;;;1.70;;
10090;SDS011;5084;51.386;6.778;2023-09-19T15:43:47;2.93;;;1.70;;
10090;SDS011;5084;51.386;6.778;2023-09-19T15:46:14;3.53;;;1.93;;
10090;SDS011;5084;51.386;6.778;2023-09-19T15:48:40;2.80;;;1.73;;
10090;SDS011;5084;51.386;6.778;2023-09-19T15:51:06;1.97;;;1.70;;
10090;SDS011;5084;51.386;6.778;2023-09-19T15:53:45;3.30;;;2.03;;
10090;SDS011;5084;51.386;6.778;2023-09-19T15:56:12;1.73;;;1.63;;
10090;SDS011;5084;51.386;6.778;2023-09-19T16:01:55;2.57;;;1.70;;